This is the latest recevied weather packets stored in our database for station/object N8WEL. If no packets are shown the sender has not sent any weather packets the latest 10 day(s).
| Time | Temp. | Humidity | Pressure | Rain* | Wind** | Luminosity | Snow |
|---|---|---|---|---|---|---|---|
| 1777816509 | 10.56° C | 49% | 1017.4 hPa | 0 mm | - | - | - |
| 1777816156 | 10.56° C | 51% | 1017.5 hPa | 0 mm | - | - | - |
| 1777815856 | 10° C | 50% | 1017.6 hPa | 0 mm | - | - | - |
| 1777815558 | 10° C | 52% | 1017.6 hPa | 0 mm | - | - | - |
| 1777815257 | 10° C | 52% | 1017.6 hPa | 0 mm | - | - | - |
| 1777814666 | 9.44° C | 54% | 1017.6 hPa | 0 mm | - | - | - |
| 1777814366 | 9.44° C | 54% | 1017.5 hPa | 0 mm | - | - | - |
| 1777814066 | 8.89° C | 56% | 1017.7 hPa | 0 mm | - | - | - |
| 1777813766 | 8.89° C | 57% | 1017.6 hPa | 0 mm | - | - | - |
| 1777813466 | 8.33° C | 58% | 1017.7 hPa | 0 mm | - | - | - |
| 1777813166 | 8.33° C | 60% | 1017.6 hPa | 0 mm | - | - | - |
| 1777812615 | 7.78° C | 63% | 1017.7 hPa | 0 mm | - | - | - |
| 1777812322 | 7.22° C | 64% | 1017.7 hPa | 0 mm | - | - | - |
| 1777812015 | 7.22° C | 64% | 1017.8 hPa | 0 mm | - | - | - |
| 1777811441 | 6.11° C | 69% | 1017.7 hPa | 0 mm | - | - | - |
| 1777811210 | 5.56° C | 70% | 1017.6 hPa | 0 mm | - | - | - |
| 1777810961 | 5.56° C | 72% | 1017.7 hPa | 0 mm | - | - | - |
| 1777810960 | 5° C | 73% | 1017.6 hPa | 0 mm | - | - | - |
| 1777810230 | 4.44° C | 75% | 1017.5 hPa | 0 mm | - | - | - |
| 1777810229 | 4.44° C | 78% | 1017.6 hPa | 0 mm | - | - | - |
| 1777810228 | 3.33° C | 83% | 1017.5 hPa | 0 mm | - | - | - |
| 1777810228 | 3.89° C | 80% | 1017.5 hPa | 0 mm | - | - | - |
| 1777810227 | - | - | 1017.5 hPa | 0 mm | - | - | - |
| 1777810226 | - | - | 1017.4 hPa | 0 mm | - | - | - |
| 1777810226 | - | - | 1017.4 hPa | 0 mm | - | - | - |
* Rain latest hour (hover to see other rain measurements)
** Current wind speed in m/s (hover to see current wind gust speed)